Time;durP1;ratioP1;P1;durP2;ratioP2;P2;SDS_P1;SDS_P2;PMS_P1;PMS_P2;Temp;Humidity;BMP_temperature;BMP_pressure;BME280_temperature;BME280_humidity;BME280_pressure;Samples;Min_cycle;Max_cycle;Signal;HPM_P1;HPM_P2
2022/06/03 00:01:47;;;;;;;11.03;8.30;;;12.20;99.90;;;;;;5203642;28;20426;-49
2022/06/03 00:04:46;;;;;;;11.83;6.60;;;12.20;99.90;;;;;;5209814;28;20596;-51
2022/06/03 00:07:31;;;;;;;14.13;7.40;;;12.20;99.90;;;;;;5203335;28;20495;-52
2022/06/03 00:10:24;;;;;;;10.90;7.37;;;12.20;99.90;;;;;;5202714;28;20517;-49
2022/06/03 00:13:25;;;;;;;9.37;7.37;;;12.10;99.90;;;;;;5199891;28;20437;-51
2022/06/03 00:16:17;;;;;;;12.63;7.07;;;12.10;99.90;;;;;;5200670;28;21034;-51
2022/06/03 00:19:13;;;;;;;13.63;7.20;;;12.10;99.90;;;;;;5204968;28;20457;-50
2022/06/03 00:21:55;;;;;;;14.57;7.27;;;12.10;99.90;;;;;;5192754;28;20434;-50
2022/06/03 00:25:01;;;;;;;9.70;6.90;;;12.10;99.90;;;;;;5205455;28;20481;-50
2022/06/03 00:28:04;;;;;;;10.93;6.60;;;12.00;99.90;;;;;;5194793;28;20449;-51
2022/06/03 00:31:13;;;;;;;8.20;6.83;;;12.00;99.90;;;;;;5203464;28;20438;-52
2022/06/03 00:33:59;;;;;;;10.80;6.50;;;12.00;99.90;;;;;;5205176;28;20741;-50
2022/06/03 00:36:36;;;;;;;14.43;6.10;;;11.90;99.90;;;;;;5200980;28;20427;-50
2022/06/03 00:39:07;;;;;;;8.87;7.03;;;11.90;99.90;;;;;;5200526;28;20438;-50
2022/06/03 00:42:23;;;;;;;8.00;6.90;;;11.80;99.90;;;;;;5199258;28;20823;-50
2022/06/03 00:45:26;;;;;;;12.03;7.00;;;11.80;99.90;;;;;;5186140;28;20214;-50
2022/06/03 00:48:00;;;;;;;9.67;7.10;;;11.80;99.90;;;;;;5193960;28;20441;-50
2022/06/03 00:51:06;;;;;;;10.67;6.40;;;11.80;99.90;;;;;;5202587;28;20431;-49
2022/06/03 00:53:43;;;;;;;10.83;7.00;;;11.70;99.90;;;;;;5202926;28;20513;-50
2022/06/03 00:56:28;;;;;;;8.23;6.63;;;11.70;99.90;;;;;;5206822;28;20468;-50
2022/06/03 00:59:07;;;;;;;9.83;6.10;;;11.70;99.90;;;;;;5200970;28;20414;-50
2022/06/03 01:01:44;;;;;;;9.70;7.67;;;11.70;99.90;;;;;;5210105;28;20426;-49
2022/06/03 01:04:40;;;;;;;10.83;7.07;;;11.70;99.90;;;;;;5199011;28;20435;-51
2022/06/03 01:07:29;;;;;;;12.27;6.40;;;11.70;99.90;;;;;;5208588;28;20440;-48
2022/06/03 01:10:28;;;;;;;7.80;6.40;;;11.60;99.90;;;;;;5206969;28;20464;-50
2022/06/03 01:13:12;;;;;;;7.57;6.17;;;11.60;99.90;;;;;;5200996;28;20450;-50
2022/06/03 01:16:17;;;;;;;8.63;7.10;;;11.50;99.90;;;;;;5201788;28;20544;-49
2022/06/03 01:18:58;;;;;;;8.83;6.77;;;11.50;99.90;;;;;;5186973;28;20477;-50
2022/06/03 01:22:02;;;;;;;9.63;7.07;;;11.50;99.90;;;;;;5197024;28;20536;-50
2022/06/03 01:24:54;;;;;;;7.13;6.43;;;11.50;99.90;;;;;;5205524;28;20465;-51
2022/06/03 01:27:39;;;;;;;8.77;6.13;;;11.50;99.90;;;;;;5206196;28;20498;-49
2022/06/03 01:30:36;;;;;;;10.80;8.10;;;11.40;99.90;;;;;;5195502;28;20992;-50
2022/06/03 01:33:21;;;;;;;8.77;6.63;;;11.40;99.90;;;;;;5210953;28;20449;-49
2022/06/03 01:36:22;;;;;;;7.70;6.50;;;11.40;99.90;;;;;;5192467;28;20958;-50
2022/06/03 01:39:31;;;;;;;9.37;6.40;;;11.40;99.90;;;;;;5191257;28;20447;-49
2022/06/03 01:42:20;;;;;;;15.60;7.20;;;11.40;99.90;;;;;;5188704;28;20434;-50
2022/06/03 01:44:54;;;;;;;9.27;6.90;;;11.40;99.90;;;;;;5204704;28;20544;-48
2022/06/03 01:47:42;;;;;;;11.80;7.07;;;11.30;99.90;;;;;;5205866;28;20450;-50
2022/06/03 01:50:54;;;;;;;9.27;7.40;;;11.30;99.90;;;;;;5206071;28;20449;-52
2022/06/03 01:53:33;;;;;;;9.73;6.57;;;11.30;99.90;;;;;;5205418;28;20431;-50
2022/06/03 01:56:26;;;;;;;9.17;7.27;;;11.20;99.90;;;;;;5204668;28;20934;-49
2022/06/03 01:59:27;;;;;;;11.50;6.87;;;11.20;99.90;;;;;;5201705;28;20398;-50
2022/06/03 02:02:17;;;;;;;10.73;7.63;;;11.20;99.90;;;;;;5198309;28;20428;-49
2022/06/03 02:05:21;;;;;;;8.63;7.30;;;11.20;99.90;;;;;;5197070;28;20458;-50
2022/06/03 02:08:13;;;;;;;6.67;5.97;;;11.10;99.90;;;;;;5206747;28;20426;-51
2022/06/03 02:11:01;;;;;;;10.73;6.67;;;11.10;99.90;;;;;;5204761;28;20453;-50
2022/06/03 02:13:59;;;;;;;6.67;5.90;;;11.10;99.90;;;;;;5201276;28;20466;-49
2022/06/03 02:16:57;;;;;;;6.90;6.20;;;11.10;99.90;;;;;;5197990;28;20449;-50
2022/06/03 02:19:58;;;;;;;9.70;7.37;;;11.10;99.90;;;;;;5193148;28;20446;-49
2022/06/03 02:23:06;;;;;;;9.50;6.33;;;11.00;99.90;;;;;;5202785;28;20443;-51
2022/06/03 02:25:51;;;;;;;8.50;7.47;;;11.00;99.90;;;;;;5199104;28;20981;-50
2022/06/03 02:28:46;;;;;;;9.97;7.40;;;11.00;99.90;;;;;;5196194;28;20454;-50
2022/06/03 02:32:07;;;;;;;10.40;7.30;;;11.00;99.90;;;;;;5206540;28;20548;-50
2022/06/03 02:34:50;;;;;;;9.00;7.90;;;10.90;99.90;;;;;;5184779;28;20493;-51
2022/06/03 02:37:32;;;;;;;12.00;7.07;;;10.90;99.90;;;;;;5184874;28;20978;-50
2022/06/03 02:40:18;;;;;;;9.97;7.13;;;10.90;99.90;;;;;;5209549;28;20430;-52
2022/06/03 02:42:57;;;;;;;9.10;7.27;;;10.90;99.90;;;;;;5203046;28;20441;-53
2022/06/03 02:45:53;;;;;;;9.43;7.87;;;10.90;99.90;;;;;;5205481;28;20497;-53
2022/06/03 02:48:52;;;;;;;16.80;7.73;;;10.90;99.90;;;;;;5197513;28;20459;-55
2022/06/03 02:51:37;;;;;;;9.07;7.93;;;10.90;99.90;;;;;;5186205;28;20450;-47
2022/06/03 02:54:43;;;;;;;8.80;7.40;;;10.90;99.90;;;;;;5200938;28;20433;-49
2022/06/03 02:57:38;;;;;;;10.00;7.77;;;10.80;99.90;;;;;;5144549;28;20424;-54
2022/06/03 03:00:31;;;;;;;11.93;7.70;;;10.80;99.90;;;;;;5197891;28;20441;-54
2022/06/03 03:03:11;;;;;;;14.87;7.53;;;10.80;99.90;;;;;;5205769;28;20465;-51
2022/06/03 03:06:27;;;;;;;12.70;7.60;;;10.90;99.90;;;;;;5202102;28;20461;-49
2022/06/03 03:09:24;;;;;;;10.07;7.03;;;10.90;99.90;;;;;;5176530;28;20471;-50
2022/06/03 03:12:10;;;;;;;8.50;7.57;;;10.90;99.90;;;;;;5191921;28;20446;-49
2022/06/03 03:15:07;;;;;;;19.33;7.60;;;10.90;99.90;;;;;;5202880;28;20450;-50
2022/06/03 03:17:59;;;;;;;11.17;7.70;;;10.90;99.90;;;;;;5201575;28;20872;-50
2022/06/03 03:20:57;;;;;;;9.40;6.90;;;10.90;99.90;;;;;;5198703;28;20399;-47
2022/06/03 03:23:45;;;;;;;9.73;6.77;;;10.90;99.90;;;;;;5201251;28;20427;-48
2022/06/03 03:26:26;;;;;;;8.13;6.87;;;11.00;99.90;;;;;;5198177;28;20469;-53
2022/06/03 03:29:06;;;;;;;10.37;7.70;;;11.00;99.90;;;;;;5195259;28;20450;-47
2022/06/03 03:32:02;;;;;;;10.43;6.23;;;11.00;99.90;;;;;;5204195;28;20433;-53
2022/06/03 03:35:11;;;;;;;7.23;5.77;;;11.00;99.90;;;;;;5202532;28;20473;-54
2022/06/03 03:37:54;;;;;;;11.10;6.80;;;11.00;99.90;;;;;;5203008;28;20434;-54
2022/06/03 03:40:53;;;;;;;10.33;7.60;;;11.00;99.90;;;;;;5205063;28;20837;-55
2022/06/03 03:44:03;;;;;;;11.60;8.50;;;11.00;99.90;;;;;;5193430;28;20431;-51
2022/06/03 03:46:50;;;;;;;17.90;7.37;;;11.10;99.90;;;;;;5193491;28;20810;-50
2022/06/03 03:49:53;;;;;;;15.13;7.13;;;11.10;99.90;;;;;;5202915;28;20511;-47
2022/06/03 03:52:51;;;;;;;15.13;8.10;;;11.20;99.90;;;;;;5201215;28;20438;-48
2022/06/03 03:56:03;;;;;;;13.10;7.40;;;11.20;99.90;;;;;;5201877;28;20946;-47
2022/06/03 03:58:50;;;;;;;14.40;8.07;;;11.30;99.90;;;;;;5190289;28;20464;-47
2022/06/03 04:01:46;;;;;;;11.40;6.57;;;11.30;99.90;;;;;;5190295;28;20534;-47
2022/06/03 04:04:46;;;;;;;16.10;7.83;;;11.40;99.90;;;;;;5202215;28;20446;-49
2022/06/03 04:07:21;;;;;;;15.43;8.10;;;11.50;99.90;;;;;;5195981;28;20438;-48
2022/06/03 04:10:23;;;;;;;7.17;6.47;;;11.60;99.90;;;;;;5205091;28;20493;-47
2022/06/03 04:12:57;;;;;;;17.40;8.00;;;11.60;99.90;;;;;;5196926;28;20430;-48
2022/06/03 04:16:16;;;;;;;10.07;8.00;;;11.80;99.90;;;;;;5201208;28;20451;-48
2022/06/03 04:19:08;;;;;;;11.17;8.13;;;12.00;99.90;;;;;;5189127;28;20502;-48
2022/06/03 04:22:10;;;;;;;11.03;6.50;;;12.20;99.90;;;;;;5202630;28;20431;-49
2022/06/03 04:24:59;;;;;;;12.83;7.07;;;12.50;99.90;;;;;;5187545;28;20454;-54
2022/06/03 04:28:00;;;;;;;7.40;6.70;;;12.80;99.90;;;;;;5202749;28;20977;-54
2022/06/03 04:31:23;;;;;;;9.27;6.93;;;13.10;99.90;;;;;;5198969;28;20441;-54
2022/06/03 04:34:05;;;;;;;14.33;7.10;;;13.30;99.90;;;;;;5194890;28;20445;-53
2022/06/03 04:36:48;;;;;;;7.63;6.53;;;13.40;99.90;;;;;;5197374;28;20459;-54
2022/06/03 04:39:52;;;;;;;14.20;8.03;;;13.50;99.90;;;;;;5198870;28;20431;-53
2022/06/03 04:42:57;;;;;;;21.13;7.70;;;13.80;99.90;;;;;;5199160;28;20439;-54
2022/06/03 04:46:05;;;;;;;20.10;9.20;;;14.10;99.90;;;;;;5203582;28;20829;-55
2022/06/03 04:48:45;;;;;;;12.73;7.87;;;14.60;99.90;;;;;;5206655;28;20469;-54
2022/06/03 04:51:48;;;;;;;12.20;7.20;;;15.40;99.90;;;;;;5205803;28;20459;-54
2022/06/03 04:54:51;;;;;;;10.63;6.47;;;16.40;99.90;;;;;;5199461;28;20446;-49
2022/06/03 04:57:41;;;;;;;8.73;7.30;;;17.40;99.90;;;;;;5205701;28;20433;-50
2022/06/03 05:00:20;;;;;;;16.83;6.63;;;18.40;96.10;;;;;;5207398;28;20951;-49
2022/06/03 05:02:51;;;;;;;8.60;5.60;;;19.20;87.90;;;;;;5213226;28;20541;-48
2022/06/03 05:05:56;;;;;;;7.87;5.97;;;20.10;75.30;;;;;;5209266;28;20532;-47
2022/06/03 05:09:11;;;;;;;10.37;5.80;;;21.10;66.10;;;;;;5206679;28;20523;-48
2022/06/03 05:11:47;;;;;;;8.40;4.30;;;22.50;56.30;;;;;;5204312;28;20425;-54
2022/06/03 05:14:49;;;;;;;8.83;4.70;;;24.00;51.30;;;;;;5201453;28;20444;-48
2022/06/03 05:17:43;;;;;;;7.30;4.70;;;25.50;46.70;;;;;;5214724;28;20425;-49
2022/06/03 05:20:38;;;;;;;4.20;3.90;;;26.70;42.60;;;;;;5202567;28;20479;-50
2022/06/03 05:23:27;;;;;;;4.50;4.20;;;28.00;39.70;;;;;;5209861;28;20488;-47
2022/06/03 05:26:43;;;;;;;8.23;3.37;;;28.60;36.70;;;;;;5196906;28;20989;-48
2022/06/03 05:29:35;;;;;;;3.40;3.20;;;28.90;35.40;;;;;;5200224;28;20465;-49
2022/06/03 05:32:47;;;;;;;3.40;3.20;;;29.60;35.00;;;;;;5202160;28;20430;-48
2022/06/03 05:35:55;;;;;;;3.40;3.10;;;30.70;33.70;;;;;;5196953;28;20478;-48
2022/06/03 05:39:04;;;;;;;2.80;2.40;;;31.90;31.10;;;;;;5204839;28;20869;-49
2022/06/03 05:45:41;;;;;;;2.83;2.53;;;32.00;29.20;;;;;;5200488;22;20498;-59
2022/06/03 05:48:42;;;;;;;3.83;2.40;;;31.60;30.40;;;;;;5220337;28;20437;-59
2022/06/03 05:51:13;;;;;;;3.33;2.80;;;32.00;29.80;;;;;;5218399;28;20429;-60
2022/06/03 05:54:00;;;;;;;7.67;3.10;;;33.00;29.60;;;;;;5229303;28;20421;-59
2022/06/03 05:56:53;;;;;;;5.07;2.17;;;33.40;28.20;;;;;;5218052;28;20955;-61
2022/06/03 05:59:23;;;;;;;7.87;2.03;;;34.00;27.70;;;;;;5228289;28;20212;-59
2022/06/03 06:02:10;;;;;;;1.87;1.80;;;34.50;27.60;;;;;;5222107;28;20183;-61
2022/06/03 06:05:00;;;;;;;2.88;2.67;;;35.30;26.80;;;;;;5225638;28;20572;-61
2022/06/03 06:07:53;;;;;;;5.35;2.10;;;35.60;26.10;;;;;;5220391;28;20186;-61
2022/06/03 06:10:48;;;;;;;1.85;1.75;;;35.60;25.30;;;;;;5217848;28;20711;-61
2022/06/03 06:13:40;;;;;;;2.10;2.00;;;35.40;25.50;;;;;;5216271;28;20262;-60
2022/06/03 06:16:18;;;;;;;3.08;1.83;;;35.30;25.50;;;;;;5226703;28;20230;-60
2022/06/03 06:19:01;;;;;;;2.05;1.95;;;35.40;25.40;;;;;;5219405;28;20205;-58
2022/06/03 06:21:57;;;;;;;1.38;1.38;;;35.90;24.80;;;;;;5222993;28;20677;-61
2022/06/03 06:24:57;;;;;;;5.40;1.40;;;35.30;24.30;;;;;;5226200;28;20182;-60
2022/06/03 06:27:54;;;;;;;1.33;1.17;;;34.20;25.40;;;;;;5224835;28;20269;-60
2022/06/03 06:30:34;;;;;;;2.80;1.80;;;34.50;25.40;;;;;;5222750;28;20203;-61
2022/06/03 06:33:27;;;;;;;0.90;0.90;;;35.00;24.90;;;;;;5213444;28;20180;-60
2022/06/03 06:36:25;;;;;;;3.45;1.15;;;35.60;24.80;;;;;;5225409;28;20546;-60
2022/06/03 06:39:19;;;;;;;1.58;1.48;;;36.70;24.20;;;;;;5228357;28;20198;-58
2022/06/03 06:42:14;;;;;;;4.23;1.73;;;35.40;23.90;;;;;;5221588;28;20661;-59
2022/06/03 06:45:05;;;;;;;1.23;1.23;;;34.80;24.60;;;;;;5217469;28;20213;-59
2022/06/03 06:47:41;;;;;;;2.70;2.00;;;34.90;24.50;;;;;;5215744;28;20195;-60
2022/06/03 06:50:31;;;;;;;5.70;1.50;;;34.10;25.10;;;;;;5224720;28;20316;-59
2022/06/03 06:53:11;;;;;;;4.20;1.00;;;33.10;25.90;;;;;;5226439;28;20433;-60
2022/06/03 06:55:57;;;;;;;1.20;1.10;;;33.10;26.80;;;;;;5225728;28;20517;-60
2022/06/03 06:58:42;;;;;;;1.27;1.23;;;34.50;25.60;;;;;;5225864;28;20443;-58
2022/06/03 07:01:27;;;;;;;0.97;0.97;;;34.50;25.20;;;;;;5220127;28;20236;-59
2022/06/03 07:04:06;;;;;;;1.20;1.10;;;35.30;24.40;;;;;;5224894;28;20186;-60
2022/06/03 07:06:42;;;;;;;2.20;1.30;;;35.60;23.60;;;;;;5221225;28;20203;-59
2022/06/03 07:09:43;;;;;;;1.43;1.17;;;34.00;24.80;;;;;;5220400;28;20294;-61
2022/06/03 07:12:24;;;;;;;1.83;1.60;;;33.30;25.60;;;;;;5210915;28;20486;-59
2022/06/03 07:15:08;;;;;;;1.37;1.27;;;33.90;25.70;;;;;;5225415;28;20986;-61
2022/06/03 07:21:08;;;;;;;1.60;1.50;;;36.40;23.40;;;;;;5224748;28;20550;-57
2022/06/03 07:23:55;;;;;;;1.47;1.20;;;35.70;23.40;;;;;;5215174;28;20623;-59
2022/06/03 07:26:38;;;;;;;1.57;1.57;;;34.10;24.20;;;;;;5225916;28;20214;-59
2022/06/03 07:29:42;;;;;;;2.40;1.67;;;33.30;24.70;;;;;;5225858;28;20467;-61
2022/06/03 07:32:19;;;;;;;1.50;1.50;;;33.00;25.50;;;;;;5193907;28;20487;-60
2022/06/03 07:34:55;;;;;;;1.63;1.40;;;34.20;25.10;;;;;;5218112;28;20455;-60
2022/06/03 07:37:37;;;;;;;1.17;1.17;;;33.60;25.10;;;;;;5217191;28;20429;-60
2022/06/03 07:40:28;;;;;;;1.90;1.10;;;33.30;24.90;;;;;;5218301;28;20452;-61
2022/06/03 07:43:14;;;;;;;1.80;1.10;;;33.40;24.60;;;;;;5218594;28;20453;-59
2022/06/03 07:45:54;;;;;;;1.40;1.40;;;33.40;25.10;;;;;;5220158;28;20477;-60
2022/06/03 07:48:28;;;;;;;1.07;1.07;;;33.70;24.50;;;;;;5220393;28;20465;-58
2022/06/03 07:51:04;;;;;;;1.20;1.20;;;33.60;24.70;;;;;;5226965;28;20401;-60
2022/06/03 07:54:03;;;;;;;1.00;1.00;;;34.00;24.00;;;;;;5224324;28;20420;-62
2022/06/03 07:56:37;;;;;;;1.40;1.40;;;33.80;24.20;;;;;;5216329;28;20455;-61
2022/06/03 07:59:18;;;;;;;1.07;1.07;;;33.50;24.20;;;;;;5224947;28;20436;-61
2022/06/03 08:02:13;;;;;;;1.37;1.20;;;33.90;24.40;;;;;;5224841;28;20437;-58
2022/06/03 08:04:47;;;;;;;5.20;1.97;;;32.90;24.30;;;;;;5224340;28;20472;-58
2022/06/03 08:13:08;;;;;;;1.30;1.30;;;31.10;26.40;;;;;;5223056;28;20547;-60
2022/06/03 08:15:45;;;;;;;1.70;1.60;;;30.90;25.90;;;;;;5220699;28;20450;-60
2022/06/03 08:18:18;;;;;;;1.90;1.80;;;31.50;25.70;;;;;;5228138;28;20273;-58
2022/06/03 08:20:54;;;;;;;1.37;1.37;;;32.10;24.70;;;;;;5229149;28;20425;-58
2022/06/03 08:23:30;;;;;;;1.60;1.60;;;32.00;24.90;;;;;;5230171;28;20441;-61
2022/06/03 08:26:07;;;;;;;1.27;1.27;;;32.50;25.00;;;;;;5226763;28;20483;-59
2022/06/03 08:28:45;;;;;;;1.30;1.30;;;33.40;24.50;;;;;;5228502;28;20455;-60
2022/06/03 08:31:21;;;;;;;1.50;1.40;;;34.10;23.50;;;;;;5224768;28;20424;-60
2022/06/03 08:33:57;;;;;;;1.37;1.37;;;34.90;23.20;;;;;;5221037;28;20476;-60
2022/06/03 08:36:35;;;;;;;1.00;1.00;;;34.30;23.40;;;;;;5224624;28;20682;-61
2022/06/03 08:39:20;;;;;;;1.07;1.07;;;33.90;23.50;;;;;;5222170;28;20428;-60
2022/06/03 08:42:22;;;;;;;3.33;1.57;;;34.20;23.50;;;;;;5217751;28;20520;-61
2022/06/03 08:45:01;;;;;;;1.80;1.27;;;34.60;23.30;;;;;;5228678;28;20214;-61
2022/06/03 08:47:48;;;;;;;4.33;1.60;;;33.30;23.00;;;;;;5220420;28;20226;-60
2022/06/03 08:50:39;;;;;;;2.53;1.20;;;31.80;24.70;;;;;;5228512;28;20854;-60
2022/06/03 08:53:25;;;;;;;1.50;1.40;;;30.20;26.40;;;;;;5224061;28;20433;-59
2022/06/03 08:56:00;;;;;;;4.63;1.60;;;28.50;28.40;;;;;;5227483;28;20457;-60
2022/06/03 08:58:41;;;;;;;1.00;1.00;;;27.10;29.10;;;;;;5224271;28;20434;-59
2022/06/03 09:01:36;;;;;;;1.60;1.50;;;25.90;30.60;;;;;;5222469;28;20433;-58
2022/06/03 09:04:25;;;;;;;2.03;1.93;;;25.00;31.90;;;;;;5226617;28;20795;-59
2022/06/03 09:07:07;;;;;;;1.70;1.60;;;24.50;33.40;;;;;;5224094;28;20528;-57
2022/06/03 09:10:05;;;;;;;3.70;1.30;;;24.20;33.40;;;;;;5225660;28;20822;-59
2022/06/03 09:12:44;;;;;;;1.50;1.40;;;23.60;33.50;;;;;;5226383;28;20449;-58
2022/06/03 09:15:21;;;;;;;1.17;1.17;;;23.20;34.50;;;;;;5223134;28;20452;-58
2022/06/03 09:18:16;;;;;;;1.67;1.30;;;22.90;35.10;;;;;;5229826;28;20428;-59
2022/06/03 09:20:56;;;;;;;1.53;1.53;;;22.70;35.70;;;;;;5222953;28;20509;-59
2022/06/03 09:23:32;;;;;;;1.53;1.43;;;22.60;36.30;;;;;;5217594;28;20998;-58
2022/06/03 09:26:03;;;;;;;1.67;1.57;;;22.60;36.40;;;;;;5217488;28;20821;-58
2022/06/03 09:28:36;;;;;;;1.73;1.63;;;22.80;35.40;;;;;;5228103;28;20460;-59
2022/06/03 09:31:10;;;;;;;1.17;1.17;;;22.80;35.00;;;;;;5223308;28;20929;-59
2022/06/03 09:33:43;;;;;;;1.30;1.20;;;22.70;35.30;;;;;;5217591;28;20643;-60
2022/06/03 09:36:18;;;;;;;2.73;1.40;;;22.70;35.40;;;;;;5223514;28;20786;-62
2022/06/03 09:38:57;;;;;;;1.07;1.07;;;22.30;35.60;;;;;;5227437;28;20441;-59
2022/06/03 09:41:39;;;;;;;1.13;1.13;;;22.30;35.90;;;;;;5228739;28;20941;-59
2022/06/03 09:44:13;;;;;;;5.57;2.20;;;22.40;35.60;;;;;;5225845;28;20508;-59
2022/06/03 09:46:44;;;;;;;1.60;1.10;;;22.60;36.50;;;;;;5227044;28;20473;-58
2022/06/03 09:49:18;;;;;;;1.50;1.40;;;22.50;35.00;;;;;;5222761;28;20466;-60
2022/06/03 09:52:03;;;;;;;1.27;1.27;;;22.40;35.50;;;;;;5225009;28;20505;-58
2022/06/03 09:54:40;;;;;;;4.23;2.70;;;22.30;35.70;;;;;;5214578;28;20444;-60
2022/06/03 09:57:13;;;;;;;3.50;1.53;;;22.50;35.90;;;;;;5224469;28;20425;-58
2022/06/03 10:00:16;;;;;;;1.10;1.10;;;22.70;34.50;;;;;;5223455;28;20442;-59
2022/06/03 10:02:47;;;;;;;1.30;1.30;;;22.70;33.80;;;;;;5219369;28;20435;-59
2022/06/03 10:05:19;;;;;;;1.80;1.70;;;22.60;34.50;;;;;;5225524;28;21001;-59
2022/06/03 10:07:58;;;;;;;1.07;1.07;;;22.50;36.10;;;;;;5227005;28;20461;-57
2022/06/03 10:13:19;;;;;;;1.80;1.80;;;21.90;37.40;;;;;;5222908;28;20556;-57
2022/06/03 10:15:56;;;;;;;1.60;1.60;;;21.70;38.80;;;;;;5225401;28;20449;-58
2022/06/03 10:18:33;;;;;;;1.73;1.40;;;21.50;38.40;;;;;;5217522;28;20627;-59
2022/06/03 10:21:06;;;;;;;2.57;1.33;;;21.50;38.60;;;;;;5227898;28;20801;-59
2022/06/03 10:23:42;;;;;;;1.87;1.77;;;21.60;39.10;;;;;;5226138;28;20512;-57
2022/06/03 10:26:36;;;;;;;1.83;1.73;;;21.50;38.60;;;;;;5227071;28;20456;-60
2022/06/03 10:29:13;;;;;;;2.93;1.67;;;21.60;38.80;;;;;;5226287;28;21026;-58
2022/06/03 10:31:49;;;;;;;1.90;1.80;;;21.60;39.10;;;;;;5222701;28;20426;-56
2022/06/03 10:34:25;;;;;;;1.60;1.60;;;21.70;38.30;;;;;;5225558;28;20425;-60
2022/06/03 10:36:56;;;;;;;3.37;1.67;;;21.70;38.80;;;;;;5223670;28;20530;-60
2022/06/03 10:39:28;;;;;;;2.53;1.27;;;21.70;38.40;;;;;;5227369;28;20417;-59
2022/06/03 10:41:59;;;;;;;4.00;1.40;;;21.80;38.20;;;;;;5225878;28;20429;-59
2022/06/03 10:44:34;;;;;;;2.07;1.97;;;21.90;38.50;;;;;;5220221;28;20436;-59
2022/06/03 10:47:15;;;;;;;3.17;1.63;;;22.10;38.20;;;;;;5222755;28;20998;-59
2022/06/03 10:50:10;;;;;;;6.70;1.50;;;22.30;37.60;;;;;;5224169;28;20475;-60
2022/06/03 11:01:27;;;;;;;1.70;1.60;;;22.40;37.10;;;;;;5223592;28;20440;-59
2022/06/03 11:03:59;;;;;;;1.43;1.43;;;22.50;36.60;;;;;;5216351;28;20536;-58
2022/06/03 11:06:38;;;;;;;3.87;1.57;;;22.40;37.10;;;;;;5227692;28;20433;-58
2022/06/03 11:09:09;;;;;;;2.73;1.93;;;22.30;37.10;;;;;;5223052;28;20599;-57
2022/06/03 11:11:42;;;;;;;1.77;1.67;;;22.20;37.60;;;;;;5225050;28;20612;-58
2022/06/03 11:14:39;;;;;;;1.70;1.10;;;22.00;37.20;;;;;;5224441;28;20179;-56
2022/06/03 11:17:23;;;;;;;1.50;1.50;;;21.90;37.40;;;;;;5208644;28;20802;-60
2022/06/03 11:19:56;;;;;;;1.57;1.40;;;21.90;38.70;;;;;;5226373;28;20429;-59
2022/06/03 11:22:36;;;;;;;1.60;1.50;;;22.10;38.10;;;;;;5224813;28;20482;-59
2022/06/03 11:25:33;;;;;;;2.87;1.57;;;22.20;38.30;;;;;;5222004;28;20543;-58
2022/06/03 11:28:13;;;;;;;6.30;1.63;;;22.30;37.80;;;;;;5211414;28;20425;-58
2022/06/03 11:30:48;;;;;;;1.70;1.60;;;22.30;38.30;;;;;;5224351;28;20791;-57
2022/06/03 11:33:35;;;;;;;5.50;1.67;;;22.30;38.50;;;;;;5227597;28;20429;-59
2022/06/03 11:36:36;;;;;;;2.03;1.77;;;22.20;38.40;;;;;;5224186;28;20855;-58
2022/06/03 11:39:14;;;;;;;1.63;1.60;;;22.50;38.20;;;;;;5224712;28;20528;-60
2022/06/03 11:41:49;;;;;;;1.80;1.70;;;22.60;38.50;;;;;;5220048;28;20437;-56
2022/06/03 11:44:37;;;;;;;3.30;1.60;;;22.60;37.70;;;;;;5217909;28;20449;-59
2022/06/03 11:47:24;;;;;;;1.43;1.43;;;22.60;37.90;;;;;;5206070;28;20457;-54
2022/06/03 11:49:55;;;;;;;1.30;1.30;;;22.70;37.70;;;;;;5213524;28;20465;-55
2022/06/03 11:52:26;;;;;;;1.30;1.27;;;22.70;37.60;;;;;;5220197;28;20479;-55
2022/06/03 11:54:56;;;;;;;2.03;1.90;;;22.70;37.30;;;;;;5225232;28;20217;-56
2022/06/03 11:57:28;;;;;;;2.17;1.17;;;22.90;37.20;;;;;;5223552;28;20189;-56
2022/06/03 12:00:09;;;;;;;1.00;1.00;;;23.00;35.70;;;;;;5219676;28;20269;-56
2022/06/03 12:03:03;;;;;;;2.30;1.33;;;23.00;34.70;;;;;;5223712;28;20480;-57
2022/06/03 12:05:42;;;;;;;1.20;1.20;;;23.00;34.70;;;;;;5206797;28;20531;-57
2022/06/03 12:08:36;;;;;;;1.17;1.10;;;23.00;34.80;;;;;;5211177;28;20438;-57
2022/06/03 12:13:14;;;;;;;4.10;1.53;;;23.10;35.10;;;;;;5213958;28;20506;-55
2022/06/03 12:14:18;;;;;;;1.33;1.33;;;23.50;35.20;;;;;;5217953;28;20453;-56
2022/06/03 12:16:56;;;;;;;2.60;1.50;;;23.50;34.20;;;;;;5223235;28;20437;-55
2022/06/03 12:19:37;;;;;;;1.57;1.37;;;23.50;35.00;;;;;;5224503;28;20429;-57
2022/06/03 12:22:41;;;;;;;1.70;1.60;;;23.80;35.50;;;;;;5224420;28;20436;-57
2022/06/03 12:25:31;;;;;;;3.13;1.77;;;24.10;34.70;;;;;;5200841;28;20462;-55
2022/06/03 12:28:05;;;;;;;3.67;1.43;;;24.00;35.20;;;;;;5222979;28;20461;-57
2022/06/03 12:30:42;;;;;;;2.20;1.47;;;24.10;34.40;;;;;;5222269;28;21059;-57
2022/06/03 12:33:54;;;;;;;6.90;1.00;;;24.20;34.30;;;;;;5217724;28;20512;-58
2022/06/03 12:36:33;;;;;;;2.30;1.93;;;24.10;33.40;;;;;;5224269;28;20453;-56
2022/06/03 12:39:04;;;;;;;6.37;1.50;;;24.10;33.90;;;;;;5224615;28;20612;-57
2022/06/03 12:41:44;;;;;;;1.07;1.07;;;24.10;34.00;;;;;;5213639;28;20441;-57
2022/06/03 12:44:46;;;;;;;3.00;1.30;;;24.10;33.60;;;;;;5223224;28;20879;-58
2022/06/03 12:47:24;;;;;;;1.30;1.30;;;24.20;33.90;;;;;;5220548;28;20933;-57
2022/06/03 12:50:23;;;;;;;1.10;1.10;;;23.90;33.20;;;;;;5223903;28;20552;-55
2022/06/03 12:53:44;;;;;;;4.50;1.50;;;23.80;33.40;;;;;;5219321;28;20504;-54
2022/06/03 12:56:37;;;;;;;5.93;1.47;;;23.80;33.60;;;;;;5198917;28;20465;-55
2022/06/03 12:59:23;;;;;;;2.47;1.40;;;23.80;33.60;;;;;;5217467;28;20483;-56
2022/06/03 13:02:16;;;;;;;1.10;1.10;;;23.80;33.60;;;;;;5208727;28;20456;-55
2022/06/03 13:04:53;;;;;;;1.27;1.27;;;23.90;33.40;;;;;;5222123;28;20549;-56
2022/06/03 13:07:26;;;;;;;1.20;1.20;;;23.90;33.40;;;;;;5222808;28;20429;-57
2022/06/03 13:10:03;;;;;;;1.50;1.40;;;23.90;33.40;;;;;;5219284;28;20452;-57
2022/06/03 13:12:36;;;;;;;1.60;1.60;;;23.90;34.10;;;;;;5228823;28;20428;-56
2022/06/03 13:15:16;;;;;;;1.50;1.40;;;23.90;34.20;;;;;;5223292;28;20441;-55
2022/06/03 13:20:43;;;;;;;3.90;1.43;;;23.80;33.70;;;;;;5224890;28;20455;-56
2022/06/03 13:23:22;;;;;;;3.17;1.37;;;23.80;33.50;;;;;;5219893;28;20433;-54
2022/06/03 13:25:56;;;;;;;1.00;1.00;;;23.80;33.20;;;;;;5224850;28;20452;-57
2022/06/03 13:28:38;;;;;;;2.20;1.70;;;23.80;33.20;;;;;;5226197;28;20476;-56
2022/06/03 13:31:19;;;;;;;2.10;1.20;;;23.80;33.90;;;;;;5210523;28;20434;-55
2022/06/03 13:33:59;;;;;;;1.40;1.40;;;23.80;33.10;;;;;;5218460;28;20495;-57
2022/06/03 13:36:50;;;;;;;2.20;1.50;;;23.60;33.20;;;;;;5224240;28;20485;-58
2022/06/03 13:39:23;;;;;;;2.70;1.37;;;23.70;33.70;;;;;;5223351;28;20460;-55
2022/06/03 13:45:03;;;;;;;1.33;1.33;;;23.90;32.90;;;;;;5220661;28;20497;-55
2022/06/03 13:47:42;;;;;;;1.03;1.03;;;23.90;32.90;;;;;;5222507;28;20823;-56
2022/06/03 13:50:13;;;;;;;1.40;1.27;;;24.00;32.30;;;;;;5227302;28;20210;-55
2022/06/03 13:52:46;;;;;;;1.00;1.00;;;23.90;32.20;;;;;;5223420;28;20434;-56
2022/06/03 13:55:27;;;;;;;1.17;1.17;;;23.90;32.20;;;;;;5221678;28;20663;-56
2022/06/03 13:58:28;;;;;;;1.60;1.50;;;24.00;31.00;;;;;;5221166;28;20410;-57
2022/06/03 14:01:17;;;;;;;2.20;1.70;;;24.10;31.20;;;;;;5222810;28;20521;-55
2022/06/03 14:04:20;;;;;;;1.67;1.57;;;24.20;30.60;;;;;;5215614;28;20436;-56
2022/06/03 14:07:08;;;;;;;1.80;1.70;;;24.20;31.20;;;;;;5217394;28;20457;-56
2022/06/03 14:09:53;;;;;;;2.70;1.73;;;24.20;31.30;;;;;;5224830;28;20472;-57
2022/06/03 14:12:23;;;;;;;1.30;1.30;;;24.40;31.70;;;;;;5222580;28;20823;-57
2022/06/03 14:15:06;;;;;;;1.23;1.23;;;24.70;31.70;;;;;;5225534;28;20453;-55
2022/06/03 14:17:46;;;;;;;4.37;1.20;;;24.80;30.80;;;;;;5213115;28;20194;-54
2022/06/03 14:20:31;;;;;;;1.60;1.10;;;24.70;30.50;;;;;;5219089;28;20449;-55
2022/06/03 14:23:13;;;;;;;1.53;1.43;;;24.60;30.40;;;;;;5223497;28;20445;-57
2022/06/03 14:25:51;;;;;;;1.60;1.60;;;24.60;30.70;;;;;;5216848;28;20827;-56
2022/06/03 14:28:31;;;;;;;2.30;1.60;;;24.50;30.60;;;;;;5228163;28;20905;-56
2022/06/03 14:31:41;;;;;;;2.70;1.20;;;24.50;31.20;;;;;;5225849;28;20432;-55
2022/06/03 14:34:44;;;;;;;2.70;1.17;;;24.60;31.00;;;;;;5217586;28;20503;-56
2022/06/03 14:37:30;;;;;;;1.57;1.47;;;24.70;30.50;;;;;;5221792;28;20432;-59
2022/06/03 14:40:07;;;;;;;1.17;1.17;;;24.70;30.90;;;;;;5216582;28;20529;-58
2022/06/03 14:42:39;;;;;;;1.43;1.27;;;24.90;30.90;;;;;;5226252;28;20898;-56
2022/06/03 14:45:14;;;;;;;2.90;2.60;;;24.90;30.60;;;;;;5222326;28;20470;-55
2022/06/03 14:47:56;;;;;;;1.43;1.43;;;25.00;30.50;;;;;;5218600;28;20433;-56
2022/06/03 14:50:35;;;;;;;1.63;1.53;;;24.90;32.50;;;;;;5231917;28;20469;-56
2022/06/03 14:53:20;;;;;;;0.90;0.90;;;24.90;32.90;;;;;;5223993;28;20452;-56
2022/06/03 14:56:02;;;;;;;1.80;1.70;;;24.90;33.00;;;;;;5223175;28;20950;-55
2022/06/03 14:58:47;;;;;;;1.17;1.17;;;24.90;33.40;;;;;;5225563;28;20500;-55